Time;durP1;ratioP1;P1;durP2;ratioP2;P2;SDS_P1;SDS_P2;PMS_P1;PMS_P2;Temp;Humidity;BMP_temperature;BMP_pressure;BME280_temperature;BME280_humidity;BME280_pressure;Samples;Min_cycle;Max_cycle;Signal;HPM_P1;HPM_P2
2023/08/15 00:00:02;;;;;;;4.63;3.28;;;23.60;99.90;;;;;;2519122;23;20007;-73
2023/08/15 00:01:02;;;;;;;3.30;3.00;;;23.60;99.90;;;;;;2518089;23;20006;-74
2023/08/15 00:02:03;;;;;;;6.13;3.25;;;23.60;99.90;;;;;;2518595;23;20407;-73
2023/08/15 00:03:04;;;;;;;3.80;3.40;;;23.60;99.90;;;;;;2505701;23;20094;-73
2023/08/15 00:04:05;;;;;;;3.58;3.28;;;23.60;99.90;;;;;;2506656;23;20018;-73
2023/08/15 00:05:05;;;;;;;4.30;3.22;;;23.50;99.90;;;;;;2519116;23;20462;-73
2023/08/15 00:06:06;;;;;;;5.18;3.38;;;23.50;99.90;;;;;;2518559;23;20431;-73
2023/08/15 00:07:07;;;;;;;4.20;3.08;;;23.50;99.90;;;;;;2517866;23;20003;-73
2023/08/15 00:08:07;;;;;;;3.95;3.45;;;23.50;99.90;;;;;;2518749;23;20105;-73
2023/08/15 00:09:08;;;;;;;5.70;3.10;;;23.50;99.90;;;;;;2518352;23;20006;-73
2023/08/15 00:10:08;;;;;;;3.67;2.90;;;23.40;99.90;;;;;;2518761;23;20493;-73
2023/08/15 00:11:09;;;;;;;3.97;3.25;;;23.50;99.90;;;;;;2517505;23;20013;-74
2023/08/15 00:12:09;;;;;;;5.25;3.38;;;23.40;99.90;;;;;;2519364;23;20044;-73
2023/08/15 00:13:10;;;;;;;3.53;3.22;;;23.40;99.90;;;;;;2518674;23;20002;-73
2023/08/15 00:14:11;;;;;;;4.47;3.55;;;23.40;99.90;;;;;;2519232;23;20668;-74
2023/08/15 00:15:12;;;;;;;5.72;3.22;;;23.40;99.90;;;;;;2519678;23;20009;-73
2023/08/15 00:16:12;;;;;;;5.28;3.63;;;23.40;99.90;;;;;;2518774;23;20119;-73
2023/08/15 00:17:13;;;;;;;3.95;3.25;;;23.40;99.90;;;;;;2518564;23;20014;-73
2023/08/15 00:18:13;;;;;;;3.30;3.00;;;23.40;99.90;;;;;;2519253;23;20017;-73
2023/08/15 00:19:14;;;;;;;4.97;3.40;;;23.40;99.90;;;;;;2518565;23;20002;-73
2023/08/15 00:20:14;;;;;;;3.65;3.15;;;23.40;99.90;;;;;;2506205;23;20031;-73
2023/08/15 00:21:15;;;;;;;3.72;3.15;;;23.40;99.90;;;;;;2506249;23;20042;-73
2023/08/15 00:22:17;;;;;;;5.40;3.50;;;23.40;99.90;;;;;;2518794;23;20093;-74
2023/08/15 00:23:18;;;;;;;3.70;3.35;;;23.40;99.90;;;;;;2519371;23;20006;-73
2023/08/15 00:24:18;;;;;;;5.40;3.67;;;23.40;99.90;;;;;;2518714;23;20003;-73
2023/08/15 00:25:19;;;;;;;4.68;3.40;;;23.30;99.90;;;;;;2518564;23;20006;-73
2023/08/15 00:26:19;;;;;;;4.43;3.58;;;23.30;99.90;;;;;;2519284;23;20005;-73
2023/08/15 00:27:20;;;;;;;4.20;3.08;;;23.30;99.90;;;;;;2517901;23;20006;-73
2023/08/15 00:28:20;;;;;;;5.00;3.90;;;23.30;99.90;;;;;;2518908;23;20002;-73
2023/08/15 00:29:21;;;;;;;4.43;3.45;;;23.30;99.90;;;;;;2519044;23;20301;-73
2023/08/15 00:30:21;;;;;;;4.00;3.22;;;23.30;99.90;;;;;;2519079;23;20037;-73
2023/08/15 00:31:22;;;;;;;4.93;3.55;;;23.30;99.90;;;;;;2518545;23;20052;-73
2023/08/15 00:32:22;;;;;;;3.83;3.42;;;23.30;99.90;;;;;;2518621;23;20073;-73
2023/08/15 00:33:23;;;;;;;7.50;4.35;;;23.30;99.90;;;;;;2518674;23;20007;-73
2023/08/15 00:34:23;;;;;;;7.25;4.00;;;23.30;99.90;;;;;;2519195;23;20376;-73
2023/08/15 00:35:24;;;;;;;5.22;3.78;;;23.20;99.90;;;;;;2519416;23;20010;-73
2023/08/15 00:36:24;;;;;;;3.95;3.28;;;23.30;99.90;;;;;;2518090;23;20009;-73
2023/08/15 00:37:25;;;;;;;5.72;3.85;;;23.30;99.90;;;;;;2518464;23;20351;-73
2023/08/15 00:38:25;;;;;;;6.57;4.10;;;23.30;99.90;;;;;;2518818;23;20010;-73
2023/08/15 00:39:26;;;;;;;5.63;4.05;;;23.20;99.90;;;;;;2518561;23;20015;-73
2023/08/15 00:40:26;;;;;;;4.15;3.25;;;23.20;99.90;;;;;;2518474;23;20034;-73
2023/08/15 00:41:27;;;;;;;4.57;3.20;;;23.20;99.90;;;;;;2517980;23;20032;-73
2023/08/15 00:42:28;;;;;;;3.88;3.53;;;23.20;99.90;;;;;;2518816;23;20006;-73
2023/08/15 00:43:28;;;;;;;4.00;3.67;;;23.20;99.90;;;;;;2518962;23;20605;-73
2023/08/15 00:44:29;;;;;;;4.88;3.63;;;23.20;99.90;;;;;;2519037;23;20061;-73
2023/08/15 00:45:29;;;;;;;4.18;3.53;;;23.10;99.90;;;;;;2518965;23;20033;-73
2023/08/15 00:46:30;;;;;;;4.85;3.53;;;23.20;99.90;;;;;;2506003;23;20518;-73
2023/08/15 00:47:31;;;;;;;5.45;3.25;;;23.20;99.90;;;;;;2504016;23;20014;-73
2023/08/15 00:48:33;;;;;;;4.05;3.47;;;23.10;99.90;;;;;;2519487;23;20010;-73
2023/08/15 00:49:34;;;;;;;3.53;3.22;;;23.20;99.90;;;;;;2519450;23;19998;-73
2023/08/15 00:50:34;;;;;;;4.97;3.83;;;23.10;99.90;;;;;;2518911;23;20506;-73
2023/08/15 00:51:36;;;;;;;7.35;4.28;;;23.10;99.90;;;;;;2518322;23;20002;-73
2023/08/15 00:52:37;;;;;;;3.80;3.50;;;23.10;99.90;;;;;;2518543;23;20490;-73
2023/08/15 00:53:38;;;;;;;6.55;3.88;;;23.10;99.90;;;;;;2519383;23;20002;-73
2023/08/15 00:54:42;;;;;;;6.78;3.55;;;23.10;99.90;;;;;;2518372;23;20009;-73
2023/08/15 00:55:45;;;;;;;7.15;3.40;;;23.10;99.90;;;;;;2518266;23;20033;-73
2023/08/15 00:56:45;;;;;;;5.18;3.55;;;23.10;99.90;;;;;;2506993;23;20085;-73
2023/08/15 00:57:46;;;;;;;5.82;3.47;;;23.00;99.90;;;;;;2505461;23;20487;-73
2023/08/15 00:58:46;;;;;;;5.25;3.72;;;23.10;99.90;;;;;;2519078;23;20579;-73
2023/08/15 00:59:47;;;;;;;4.35;3.67;;;23.00;99.90;;;;;;2519480;23;20006;-73
2023/08/15 01:00:50;;;;;;;6.25;3.78;;;23.00;99.90;;;;;;2519433;23;20017;-73
2023/08/15 01:01:51;;;;;;;6.35;3.53;;;23.00;99.90;;;;;;2518283;23;20002;-73
2023/08/15 01:02:52;;;;;;;6.80;4.25;;;23.00;99.90;;;;;;2518795;23;20010;-73
2023/08/15 01:03:53;;;;;;;4.43;4.03;;;23.00;99.90;;;;;;2517904;23;20002;-73
2023/08/15 01:04:53;;;;;;;4.85;3.72;;;23.00;99.90;;;;;;2518719;23;20010;-73
2023/08/15 01:05:55;;;;;;;7.18;3.75;;;23.00;99.90;;;;;;2517699;23;20006;-73
2023/08/15 01:06:55;;;;;;;4.55;3.55;;;22.90;99.90;;;;;;2517628;23;20069;-73
2023/08/15 01:07:56;;;;;;;4.70;3.38;;;22.90;99.90;;;;;;2518192;23;20061;-73
2023/08/15 01:08:57;;;;;;;6.40;3.85;;;22.90;99.90;;;;;;2518128;23;20032;-73
2023/08/15 01:09:57;;;;;;;4.75;3.90;;;22.90;99.90;;;;;;2518784;23;20009;-73
2023/08/15 01:10:59;;;;;;;4.03;3.63;;;22.90;99.90;;;;;;2517061;23;20002;-73
2023/08/15 01:12:21;;;;;;;5.57;3.80;;;22.90;99.90;;;;;;2517526;23;20089;-73
2023/08/15 01:13:34;;;;;;;3.45;3.10;;;22.90;99.90;;;;;;2518469;23;20010;-73
2023/08/15 01:14:48;;;;;;;3.78;3.47;;;22.80;99.90;;;;;;2518225;23;20006;-73
2023/08/15 01:15:51;;;;;;;6.00;3.30;;;22.90;99.90;;;;;;2505325;23;20021;-73
2023/08/15 01:16:52;;;;;;;4.70;3.90;;;22.80;99.90;;;;;;2506252;23;20017;-73
2023/08/15 01:18:13;;;;;;;4.95;3.53;;;22.80;99.90;;;;;;2517991;23;20037;-73
2023/08/15 01:19:34;;;;;;;4.40;3.60;;;22.80;99.90;;;;;;2516164;23;20032;-73
2023/08/15 01:20:37;;;;;;;3.75;3.38;;;22.80;99.90;;;;;;2518552;23;20002;-73
2023/08/15 01:21:42;;;;;;;3.70;3.40;;;22.80;99.90;;;;;;2518504;23;20021;-73
2023/08/15 01:22:46;;;;;;;4.55;3.58;;;22.80;99.90;;;;;;2517489;23;20343;-73
2023/08/15 01:23:49;;;;;;;4.00;3.28;;;22.70;99.90;;;;;;2518509;23;20102;-73
2023/08/15 01:24:50;;;;;;;3.75;3.42;;;22.70;99.90;;;;;;2518798;23;20010;-73
2023/08/15 01:25:54;;;;;;;3.88;3.30;;;22.70;99.90;;;;;;2517918;23;20097;-73
2023/08/15 01:26:54;;;;;;;4.75;3.47;;;22.70;99.90;;;;;;2517891;23;20007;-73
2023/08/15 01:27:55;;;;;;;5.97;3.53;;;22.70;99.90;;;;;;2518948;23;20094;-73
2023/08/15 01:28:55;;;;;;;5.25;3.67;;;22.70;99.90;;;;;;2517351;23;20894;-73
2023/08/15 01:29:56;;;;;;;4.05;3.40;;;22.70;99.90;;;;;;2519074;23;20006;-73
2023/08/15 01:31:03;;;;;;;5.25;3.90;;;22.70;99.90;;;;;;2517959;23;20022;-73
2023/08/15 01:32:17;;;;;;;5.07;3.72;;;22.60;99.90;;;;;;2519127;23;20010;-73
2023/08/15 01:33:39;;;;;;;3.72;3.33;;;22.60;99.90;;;;;;2518537;23;20003;-73
2023/08/15 01:35:05;;;;;;;5.32;3.53;;;22.60;99.90;;;;;;2517911;23;20069;-73
2023/08/15 01:36:11;;;;;;;3.60;3.30;;;22.60;99.90;;;;;;2518924;23;20011;-73
2023/08/15 01:37:19;;;;;;;7.68;3.35;;;22.50;99.90;;;;;;2517272;23;20003;-73
2023/08/15 01:38:31;;;;;;;5.30;3.83;;;22.60;99.90;;;;;;2518240;23;20085;-73
2023/08/15 01:39:34;;;;;;;4.35;3.47;;;22.50;99.90;;;;;;2518361;23;20014;-73
2023/08/15 01:40:36;;;;;;;8.88;3.70;;;22.50;99.90;;;;;;2505338;23;20007;-73
2023/08/15 01:41:39;;;;;;;6.15;3.78;;;22.50;99.90;;;;;;2506319;23;20058;-73
2023/08/15 01:42:41;;;;;;;4.82;3.60;;;22.50;99.90;;;;;;2503901;23;20014;-73
2023/08/15 01:43:44;;;;;;;5.53;4.40;;;22.50;99.90;;;;;;2506003;23;20007;-73
2023/08/15 01:44:45;;;;;;;5.32;3.63;;;22.50;99.90;;;;;;2518628;23;20010;-73
2023/08/15 01:45:46;;;;;;;5.63;4.57;;;22.50;99.90;;;;;;2518386;23;20018;-73
2023/08/15 01:46:47;;;;;;;4.47;4.05;;;22.50;99.90;;;;;;2518048;23;20006;-73
2023/08/15 01:47:48;;;;;;;4.95;3.67;;;22.50;99.90;;;;;;2518482;23;20057;-73
2023/08/15 01:48:48;;;;;;;6.55;3.67;;;22.50;99.90;;;;;;2518583;23;20158;-73
2023/08/15 01:49:49;;;;;;;5.95;3.75;;;22.50;99.90;;;;;;2506278;23;20066;-73
2023/08/15 01:50:49;;;;;;;5.30;3.90;;;22.40;99.90;;;;;;2504603;23;20240;-73
2023/08/15 01:51:50;;;;;;;5.55;4.20;;;22.40;99.90;;;;;;2517286;23;20006;-73
2023/08/15 01:52:51;;;;;;;4.30;3.90;;;22.50;99.90;;;;;;2518721;23;20011;-73
2023/08/15 01:53:52;;;;;;;5.05;3.47;;;22.40;99.90;;;;;;2519115;23;20006;-73
2023/08/15 01:54:52;;;;;;;4.10;3.70;;;22.50;99.90;;;;;;2518458;23;20011;-73
2023/08/15 01:55:53;;;;;;;5.65;3.78;;;22.40;99.90;;;;;;2518680;23;20093;-73
2023/08/15 01:56:54;;;;;;;5.60;4.10;;;22.40;99.90;;;;;;2518551;23;20010;-73
2023/08/15 01:57:54;;;;;;;5.78;3.65;;;22.40;99.90;;;;;;2505067;23;20010;-73
2023/08/15 01:58:55;;;;;;;4.72;4.15;;;22.40;99.90;;;;;;2505877;23;20002;-73
2023/08/15 01:59:55;;;;;;;5.95;3.78;;;22.40;99.90;;;;;;2517777;23;20018;-73
2023/08/15 02:00:57;;;;;;;5.72;3.65;;;22.40;99.90;;;;;;2517977;23;20021;-73
2023/08/15 02:01:58;;;;;;;4.45;3.50;;;22.40;99.90;;;;;;2518383;23;20002;-73
2023/08/15 02:02:58;;;;;;;3.80;3.40;;;22.40;99.90;;;;;;2518668;23;20006;-73
2023/08/15 02:03:59;;;;;;;4.25;3.83;;;22.40;99.90;;;;;;2518563;23;20689;-73
2023/08/15 02:05:02;;;;;;;5.47;3.65;;;22.40;99.90;;;;;;2518205;23;20010;-73
2023/08/15 02:06:03;;;;;;;6.07;4.00;;;22.40;99.90;;;;;;2518712;23;20078;-73
2023/08/15 02:07:03;;;;;;;3.95;3.55;;;22.40;99.90;;;;;;2517853;23;20009;-73
2023/08/15 02:08:04;;;;;;;7.78;4.38;;;22.40;99.90;;;;;;2504714;23;20123;-73
2023/08/15 02:09:05;;;;;;;4.30;3.90;;;22.40;99.90;;;;;;2505720;23;20034;-73
2023/08/15 02:10:06;;;;;;;4.18;3.78;;;22.40;99.90;;;;;;2505783;23;20132;-73
2023/08/15 02:11:06;;;;;;;5.00;3.25;;;22.40;99.90;;;;;;2505118;23;20003;-73
2023/08/15 02:12:07;;;;;;;4.70;3.58;;;22.40;99.90;;;;;;2518002;23;20092;-73
2023/08/15 02:13:08;;;;;;;4.28;3.90;;;22.40;99.90;;;;;;2505589;23;20021;-73
2023/08/15 02:14:08;;;;;;;4.68;3.42;;;22.40;99.90;;;;;;2506401;23;20007;-73
2023/08/15 02:15:09;;;;;;;5.82;3.95;;;22.40;99.90;;;;;;2505725;23;20013;-73
2023/08/15 02:16:09;;;;;;;5.72;3.65;;;22.40;99.90;;;;;;2506016;23;20062;-73
2023/08/15 02:17:10;;;;;;;4.30;3.55;;;22.40;99.90;;;;;;2517602;23;20006;-73
2023/08/15 02:18:11;;;;;;;4.35;3.95;;;22.40;99.90;;;;;;2518937;23;20013;-73
2023/08/15 02:19:12;;;;;;;6.57;4.70;;;22.40;99.90;;;;;;2518718;23;20002;-73
2023/08/15 02:20:12;;;;;;;5.03;3.65;;;22.40;99.90;;;;;;2519167;23;20086;-73
2023/08/15 02:21:13;;;;;;;5.13;3.92;;;22.40;99.90;;;;;;2518461;23;20010;-73
2023/08/15 02:22:13;;;;;;;5.30;3.80;;;22.40;99.90;;;;;;2517124;23;20062;-73
2023/08/15 02:23:14;;;;;;;4.72;4.25;;;22.40;99.90;;;;;;2518313;23;20003;-73
2023/08/15 02:24:14;;;;;;;5.53;3.60;;;22.30;99.90;;;;;;2506525;23;20014;-73
2023/08/15 02:25:15;;;;;;;5.53;3.55;;;22.40;99.90;;;;;;2494204;23;20023;-73
2023/08/15 02:26:16;;;;;;;4.45;3.78;;;22.40;99.90;;;;;;2506073;23;20027;-73
2023/08/15 02:27:16;;;;;;;4.32;3.92;;;22.30;99.90;;;;;;2517963;23;20006;-73
2023/08/15 02:28:17;;;;;;;4.80;3.50;;;22.40;99.90;;;;;;2518949;23;20773;-73
2023/08/15 02:29:17;;;;;;;4.10;3.70;;;22.40;99.90;;;;;;2519310;23;20006;-73
2023/08/15 02:30:18;;;;;;;5.70;3.72;;;22.40;99.90;;;;;;2518949;23;20049;-73
2023/08/15 02:31:19;;;;;;;4.57;4.00;;;22.40;99.90;;;;;;2518806;23;20018;-73
2023/08/15 02:32:19;;;;;;;6.05;4.00;;;22.40;99.90;;;;;;2520147;23;20022;-73
2023/08/15 02:33:20;;;;;;;3.47;3.17;;;22.40;99.90;;;;;;2506850;23;20015;-73
2023/08/15 02:34:20;;;;;;;4.45;3.88;;;22.40;99.90;;;;;;2507435;23;20339;-73
2023/08/15 02:35:21;;;;;;;4.50;4.03;;;22.40;99.90;;;;;;2520025;23;20057;-73
2023/08/15 02:36:21;;;;;;;3.97;3.55;;;22.40;99.90;;;;;;2519405;23;20006;-73
2023/08/15 02:37:22;;;;;;;5.22;4.10;;;22.40;99.90;;;;;;2518626;23;20107;-73
2023/08/15 02:38:23;;;;;;;6.95;3.47;;;22.40;99.90;;;;;;2519248;23;20017;-73
2023/08/15 02:39:23;;;;;;;5.15;3.65;;;22.40;99.90;;;;;;2518923;23;20006;-73
2023/08/15 02:40:28;;;;;;;4.03;3.53;;;22.40;99.90;;;;;;2519343;23;20010;-73
2023/08/15 02:41:28;;;;;;;6.82;3.95;;;22.40;99.90;;;;;;2518586;23;20360;-73
2023/08/15 02:42:29;;;;;;;3.85;3.45;;;22.40;99.90;;;;;;2519315;23;20118;-73
2023/08/15 02:43:30;;;;;;;4.95;3.67;;;22.50;99.90;;;;;;2519300;23;20097;-73
2023/08/15 02:44:33;;;;;;;5.57;4.03;;;22.50;99.90;;;;;;2519652;23;20070;-73
2023/08/15 02:45:33;;;;;;;4.93;3.05;;;22.50;99.90;;;;;;2506330;23;20007;-73
2023/08/15 02:46:34;;;;;;;4.50;4.00;;;22.50;99.90;;;;;;2507030;23;20828;-73
2023/08/15 02:47:34;;;;;;;4.05;3.53;;;22.50;99.90;;;;;;2518434;23;20006;-73
2023/08/15 02:48:35;;;;;;;4.55;3.65;;;22.50;99.90;;;;;;2519738;23;20416;-73
2023/08/15 02:49:35;;;;;;;7.35;4.00;;;22.50;99.90;;;;;;2519382;23;20101;-73
2023/08/15 02:50:36;;;;;;;4.55;3.35;;;22.50;99.90;;;;;;2520269;23;20403;-73
2023/08/15 02:51:36;;;;;;;4.82;3.42;;;22.50;99.90;;;;;;2519183;23;20002;-73
2023/08/15 02:52:37;;;;;;;3.63;3.30;;;22.60;99.90;;;;;;2518541;23;20162;-73
2023/08/15 02:53:37;;;;;;;3.47;3.15;;;22.60;99.90;;;;;;2519914;23;20061;-73
2023/08/15 02:54:38;;;;;;;4.15;3.75;;;22.60;99.90;;;;;;2519673;23;20014;-73
2023/08/15 02:55:38;;;;;;;4.13;3.72;;;22.60;99.90;;;;;;2519188;23;20035;-73
2023/08/15 02:56:39;;;;;;;4.88;3.40;;;22.60;99.90;;;;;;2519560;23;20506;-73
2023/08/15 02:57:39;;;;;;;3.40;3.20;;;22.60;99.90;;;;;;2518488;23;20009;-73
2023/08/15 02:58:40;;;;;;;3.92;3.30;;;22.60;99.90;;;;;;2519758;23;20006;-73
2023/08/15 02:59:40;;;;;;;3.90;3.00;;;22.60;99.90;;;;;;2519456;23;20376;-73
2023/08/15 03:00:41;;;;;;;4.68;3.58;;;22.60;99.90;;;;;;2518716;23;20022;-73
2023/08/15 03:01:41;;;;;;;3.67;3.38;;;22.60;99.90;;;;;;2519919;23;20003;-73
2023/08/15 03:02:42;;;;;;;3.75;3.42;;;22.60;99.90;;;;;;2518706;23;20747;-73
2023/08/15 03:03:42;;;;;;;3.75;3.42;;;22.60;99.90;;;;;;2518468;23;20002;-73
2023/08/15 03:04:43;;;;;;;3.38;3.08;;;22.60;99.90;;;;;;2519722;23;20006;-73
2023/08/15 03:05:43;;;;;;;3.72;3.30;;;22.70;99.90;;;;;;2518699;23;20350;-73
2023/08/15 03:06:44;;;;;;;4.47;2.97;;;22.70;99.90;;;;;;2518811;23;20009;-73
2023/08/15 03:07:45;;;;;;;6.60;3.47;;;22.70;99.90;;;;;;2518004;23;20005;-73
2023/08/15 03:08:47;;;;;;;5.70;3.58;;;22.70;99.90;;;;;;2519216;23;20978;-73
2023/08/15 03:09:47;;;;;;;5.13;3.20;;;22.70;99.90;;;;;;2520384;23;20037;-73
2023/08/15 03:10:48;;;;;;;4.25;3.03;;;22.70;99.90;;;;;;2519882;23;20002;-73
2023/08/15 03:11:48;;;;;;;7.00;3.33;;;22.80;99.90;;;;;;2519615;23;20014;-73
2023/08/15 03:12:49;;;;;;;4.40;3.30;;;22.70;99.90;;;;;;2518520;23;20012;-73
2023/08/15 03:13:50;;;;;;;3.55;3.25;;;22.80;99.90;;;;;;2519196;23;20640;-73
2023/08/15 03:14:50;;;;;;;6.30;3.35;;;22.80;99.90;;;;;;2519481;23;20037;-73
2023/08/15 03:15:55;;;;;;;4.57;3.20;;;22.80;99.90;;;;;;2506392;23;20058;-73
2023/08/15 03:16:56;;;;;;;3.88;3.15;;;22.80;99.90;;;;;;2506557;23;19999;-73
2023/08/15 03:17:57;;;;;;;4.07;3.40;;;22.80;99.90;;;;;;2506536;23;20027;-73
2023/08/15 03:18:58;;;;;;;3.45;2.92;;;22.80;99.90;;;;;;2506488;23;20011;-73
2023/08/15 03:19:59;;;;;;;5.50;3.30;;;22.80;99.90;;;;;;2518641;23;20006;-73
2023/08/15 03:21:05;;;;;;;3.50;3.20;;;22.80;99.90;;;;;;2518720;23;20018;-73
2023/08/15 03:22:08;;;;;;;4.75;3.42;;;22.80;99.90;;;;;;2517568;23;20458;-73
2023/08/15 03:23:09;;;;;;;4.80;3.53;;;22.80;99.90;;;;;;2518499;23;20049;-73
2023/08/15 03:24:10;;;;;;;2.95;2.65;;;22.90;99.90;;;;;;2506923;23;20838;-73
2023/08/15 03:25:10;;;;;;;3.55;3.25;;;22.90;99.90;;;;;;2506705;23;20506;-73
2023/08/15 03:26:11;;;;;;;4.65;3.25;;;22.90;99.90;;;;;;2519011;23;20006;-73
2023/08/15 03:27:12;;;;;;;3.55;3.10;;;22.90;99.90;;;;;;2518211;23;20003;-73
2023/08/15 03:28:12;;;;;;;4.63;2.92;;;22.90;99.90;;;;;;2518289;23;20058;-73
2023/08/15 03:29:13;;;;;;;4.25;3.55;;;22.90;99.90;;;;;;2519457;23;20053;-73
2023/08/15 03:30:13;;;;;;;7.00;3.45;;;22.90;99.90;;;;;;2518758;23;20018;-73
2023/08/15 03:31:14;;;;;;;4.00;3.00;;;22.90;99.90;;;;;;2519368;23;20003;-73
2023/08/15 03:32:14;;;;;;;6.22;3.38;;;22.90;99.90;;;;;;2518940;23;20038;-73
2023/08/15 03:33:15;;;;;;;4.05;3.70;;;22.90;99.90;;;;;;2518202;23;20010;-73
2023/08/15 03:34:16;;;;;;;4.05;3.38;;;22.90;99.90;;;;;;2519478;23;20466;-73
2023/08/15 03:35:17;;;;;;;3.75;3.40;;;22.90;99.90;;;;;;2518617;23;20376;-73
2023/08/15 03:36:17;;;;;;;4.85;3.33;;;22.90;99.90;;;;;;2518291;23;20017;-73
2023/08/15 03:37:18;;;;;;;3.28;3.05;;;23.00;99.90;;;;;;2518358;23;20021;-73
2023/08/15 03:38:20;;;;;;;4.95;3.00;;;22.90;99.90;;;;;;2519239;23;20038;-73
2023/08/15 03:39:21;;;;;;;3.60;3.30;;;23.00;99.90;;;;;;2519758;23;20045;-73
2023/08/15 03:40:21;;;;;;;5.18;3.47;;;23.00;99.90;;;;;;2518829;23;20026;-73
2023/08/15 03:41:22;;;;;;;3.38;3.00;;;23.00;99.90;;;;;;2518501;23;20038;-73
2023/08/15 03:42:23;;;;;;;3.45;3.05;;;23.00;99.90;;;;;;2518546;23;20585;-73
2023/08/15 03:43:23;;;;;;;3.90;3.60;;;23.00;99.90;;;;;;2505653;23;20313;-73
2023/08/15 03:44:24;;;;;;;6.72;3.30;;;23.00;99.90;;;;;;2506586;23;20003;-72
2023/08/15 03:45:24;;;;;;;6.95;3.35;;;23.00;99.90;;;;;;2506192;23;20006;-73
2023/08/15 03:46:25;;;;;;;5.68;3.75;;;23.00;99.90;;;;;;2506429;23;20077;-73
2023/08/15 03:47:26;;;;;;;3.20;3.00;;;23.00;99.90;;;;;;2518401;23;20490;-73
2023/08/15 03:48:26;;;;;;;7.03;3.95;;;23.00;99.90;;;;;;2518417;23;20515;-73
2023/08/15 03:49:27;;;;;;;4.45;3.65;;;23.00;99.90;;;;;;2519263;23;19999;-73
2023/08/15 03:50:31;;;;;;;7.45;3.60;;;23.00;99.90;;;;;;2519031;23;20009;-72
2023/08/15 03:51:31;;;;;;;4.93;3.53;;;23.00;99.90;;;;;;2517915;23;20006;-72
2023/08/15 03:52:34;;;;;;;4.32;3.63;;;23.00;99.90;;;;;;2506149;23;20828;-72
2023/08/15 03:53:35;;;;;;;5.00;3.92;;;23.00;99.90;;;;;;2506895;23;20007;-72
2023/08/15 03:54:35;;;;;;;5.38;3.65;;;23.00;99.90;;;;;;2519291;23;20003;-72
2023/08/15 03:55:36;;;;;;;4.05;3.47;;;23.00;99.90;;;;;;2519446;23;20041;-72
2023/08/15 03:56:36;;;;;;;4.72;3.72;;;23.00;99.90;;;;;;2518632;23;20015;-72
2023/08/15 03:57:37;;;;;;;8.27;4.60;;;23.00;99.90;;;;;;2517998;23;20018;-72
2023/08/15 03:58:37;;;;;;;5.93;3.70;;;23.00;99.90;;;;;;2506471;23;20007;-72
2023/08/15 03:59:38;;;;;;;6.40;4.00;;;23.00;99.90;;;;;;2494533;23;20003;-72
2023/08/15 04:00:38;;;;;;;6.40;4.20;;;23.00;99.90;;;;;;2505972;23;20074;-72
2023/08/15 04:01:39;;;;;;;4.00;3.30;;;23.00;99.90;;;;;;2519182;23;20002;-72
2023/08/15 04:02:39;;;;;;;6.53;3.92;;;23.00;99.90;;;;;;2505211;23;20467;-72
2023/08/15 04:03:40;;;;;;;5.30;4.07;;;23.00;99.90;;;;;;2506622;23;20030;-72
2023/08/15 04:04:40;;;;;;;4.53;4.03;;;23.00;99.90;;;;;;2518583;23;20002;-72
2023/08/15 04:05:45;;;;;;;4.72;3.63;;;23.00;99.90;;;;;;2518857;23;20003;-72
2023/08/15 04:06:45;;;;;;;5.22;3.92;;;23.00;99.90;;;;;;2517863;23;20007;-72
2023/08/15 04:07:46;;;;;;;4.57;4.13;;;23.00;99.90;;;;;;2517833;23;20010;-72
2023/08/15 04:08:47;;;;;;;6.43;4.18;;;23.00;99.90;;;;;;2518686;23;20002;-72
2023/08/15 04:09:48;;;;;;;7.25;3.80;;;23.00;99.90;;;;;;2519100;23;20013;-72
2023/08/15 04:10:48;;;;;;;6.22;4.07;;;23.00;99.90;;;;;;2518700;23;20010;-72
2023/08/15 04:11:49;;;;;;;5.60;4.00;;;23.00;99.90;;;;;;2519227;23;20026;-72
2023/08/15 04:12:49;;;;;;;5.25;3.75;;;23.00;99.90;;;;;;2518065;23;20016;-72
2023/08/15 04:13:50;;;;;;;5.20;4.00;;;23.00;99.90;;;;;;2518743;23;20130;-72
2023/08/15 04:14:50;;;;;;;8.88;4.10;;;23.00;99.90;;;;;;2519012;23;20010;-72
2023/08/15 04:15:51;;;;;;;6.55;4.03;;;23.00;99.90;;;;;;2518277;23;20006;-72
2023/08/15 04:16:51;;;;;;;4.25;3.65;;;22.90;99.90;;;;;;2506216;23;20636;-72
2023/08/15 04:17:52;;;;;;;5.82;4.18;;;22.90;99.90;;;;;;2504685;23;20015;-72
2023/08/15 04:18:52;;;;;;;8.20;4.45;;;22.90;99.90;;;;;;2516486;23;20038;-72
2023/08/15 04:19:53;;;;;;;8.23;4.18;;;22.90;99.90;;;;;;2518616;23;20029;-72
2023/08/15 04:20:54;;;;;;;5.55;4.15;;;22.90;99.90;;;;;;2518760;23;20006;-72
2023/08/15 04:21:54;;;;;;;5.82;4.10;;;22.90;99.90;;;;;;2505515;23;20011;-72
2023/08/15 04:22:55;;;;;;;7.55;4.28;;;22.90;99.90;;;;;;2505559;23;19999;-72
2023/08/15 04:23:55;;;;;;;4.95;4.25;;;22.90;99.90;;;;;;2517624;23;20002;-72
2023/08/15 04:24:56;;;;;;;5.38;4.05;;;22.90;99.90;;;;;;2519306;23;20013;-72
2023/08/15 04:25:56;;;;;;;9.10;4.53;;;22.90;99.90;;;;;;2519283;23;20007;-72
2023/08/15 04:26:59;;;;;;;5.95;3.95;;;22.90;99.90;;;;;;2518263;23;20034;-72
2023/08/15 04:28:00;;;;;;;4.45;4.05;;;22.90;99.90;;;;;;2506192;23;20043;-72
2023/08/15 04:29:00;;;;;;;7.13;3.95;;;22.90;99.90;;;;;;2506112;23;20086;-72
2023/08/15 04:30:01;;;;;;;9.55;4.28;;;22.90;99.90;;;;;;2505807;23;20098;-72
2023/08/15 04:31:01;;;;;;;8.70;4.60;;;22.90;99.90;;;;;;2506863;23;20006;-72
2023/08/15 04:32:02;;;;;;;6.55;4.82;;;22.90;99.90;;;;;;2518811;23;20010;-72
2023/08/15 04:33:03;;;;;;;6.55;4.88;;;22.90;99.90;;;;;;2518236;23;20049;-72
2023/08/15 04:34:04;;;;;;;8.80;4.35;;;22.90;99.90;;;;;;2519070;23;20026;-72
2023/08/15 04:35:06;;;;;;;8.20;5.10;;;22.90;99.90;;;;;;2518723;23;20009;-72
2023/08/15 04:36:06;;;;;;;5.38;4.72;;;22.90;99.90;;;;;;2519021;23;20137;-72
2023/08/15 04:37:07;;;;;;;7.88;4.90;;;22.90;99.90;;;;;;2517809;23;20009;-72
2023/08/15 04:38:08;;;;;;;6.75;4.57;;;22.90;99.90;;;;;;2518677;23;20011;-72
2023/08/15 04:39:09;;;;;;;7.03;4.70;;;22.90;99.90;;;;;;2519198;23;20002;-72
2023/08/15 04:40:14;;;;;;;6.35;4.75;;;22.90;99.90;;;;;;2518216;23;20427;-72
2023/08/15 04:41:17;;;;;;;6.15;4.70;;;22.90;99.90;;;;;;2518683;23;20097;-72
2023/08/15 04:42:17;;;;;;;9.80;4.65;;;22.90;99.90;;;;;;2519077;23;20729;-72
2023/08/15 04:43:18;;;;;;;5.82;4.35;;;22.90;99.90;;;;;;2505840;23;20050;-72
2023/08/15 04:44:18;;;;;;;9.15;4.78;;;22.90;99.90;;;;;;2505984;23;20009;-72
2023/08/15 04:45:19;;;;;;;7.85;4.80;;;22.90;99.90;;;;;;2518947;23;20007;-72
2023/08/15 04:46:19;;;;;;;8.20;4.95;;;22.90;99.90;;;;;;2518643;23;20017;-71
2023/08/15 04:47:20;;;;;;;5.57;4.75;;;22.90;99.90;;;;;;2518490;23;20013;-72
2023/08/15 04:48:20;;;;;;;5.07;4.57;;;22.90;99.90;;;;;;2505594;23;20428;-72
2023/08/15 04:49:21;;;;;;;5.57;4.20;;;22.90;99.90;;;;;;2505762;23;20073;-75
2023/08/15 04:50:22;;;;;;;6.57;4.43;;;22.90;99.90;;;;;;2518576;23;20003;-72
2023/08/15 04:51:23;;;;;;;6.38;4.43;;;22.90;99.90;;;;;;2518979;23;20628;-72
2023/08/15 04:52:25;;;;;;;8.82;4.28;;;22.80;99.90;;;;;;2517623;23;20658;-72
2023/08/15 04:53:25;;;;;;;6.45;4.40;;;22.80;99.90;;;;;;2518963;23;20024;-72
2023/08/15 04:54:26;;;;;;;6.57;4.40;;;22.80;99.90;;;;;;2506284;23;20014;-72
2023/08/15 04:55:26;;;;;;;5.90;4.47;;;22.90;99.90;;;;;;2505895;23;20519;-72
2023/08/15 04:56:27;;;;;;;5.95;4.30;;;22.80;99.90;;;;;;2505904;23;20011;-72
2023/08/15 04:57:27;;;;;;;6.18;4.18;;;22.80;99.90;;;;;;2505763;23;20494;-72
2023/08/15 04:58:28;;;;;;;5.97;4.35;;;22.80;99.90;;;;;;2519730;23;20064;-72
2023/08/15 04:59:28;;;;;;;10.05;4.80;;;22.80;99.90;;;;;;2519805;23;20045;-72
2023/08/15 05:00:29;;;;;;;6.78;4.20;;;22.90;99.90;;;;;;2518535;23;20018;-72
2023/08/15 05:01:29;;;;;;;8.18;4.30;;;22.80;99.90;;;;;;2519362;23;20030;-72
2023/08/15 05:02:30;;;;;;;4.85;4.15;;;22.90;99.90;;;;;;2518095;23;19998;-72
2023/08/15 05:03:30;;;;;;;6.53;4.13;;;22.80;99.90;;;;;;2518809;23;20033;-72
2023/08/15 05:04:31;;;;;;;5.80;4.63;;;22.80;99.90;;;;;;2518954;23;20423;-72
2023/08/15 05:05:31;;;;;;;7.10;4.47;;;22.80;99.90;;;;;;2518143;23;20447;-72
2023/08/15 05:06:32;;;;;;;5.28;4.00;;;22.80;99.90;;;;;;2518807;23;20029;-72
2023/08/15 05:07:33;;;;;;;7.32;3.95;;;22.80;99.90;;;;;;2516583;23;20420;-72
2023/08/15 05:08:33;;;;;;;8.48;5.32;;;22.90;99.90;;;;;;2518753;23;20009;-72
2023/08/15 05:09:34;;;;;;;5.47;4.70;;;22.80;99.90;;;;;;2518015;23;20053;-72
2023/08/15 05:10:35;;;;;;;4.75;3.95;;;22.90;99.90;;;;;;2518396;23;20006;-72
2023/08/15 05:11:35;;;;;;;8.40;4.60;;;22.80;99.90;;;;;;2505911;23;20014;-72
2023/08/15 05:12:36;;;;;;;8.15;4.20;;;22.80;99.90;;;;;;2505927;23;20010;-72
2023/08/15 05:13:36;;;;;;;4.88;4.35;;;22.90;99.90;;;;;;2518842;23;20434;-72
2023/08/15 05:14:37;;;;;;;7.07;4.00;;;22.90;99.90;;;;;;2518830;23;20010;-72
2023/08/15 05:15:37;;;;;;;7.05;5.18;;;22.90;99.90;;;;;;2518637;23;20014;-72
2023/08/15 05:16:38;;;;;;;5.53;4.20;;;22.90;99.90;;;;;;2518480;23;20033;-72
2023/08/15 05:17:38;;;;;;;5.57;4.15;;;22.90;99.90;;;;;;2505259;23;20034;-72
2023/08/15 05:18:39;;;;;;;5.88;4.38;;;22.90;99.90;;;;;;2506283;23;20014;-72
2023/08/15 05:19:39;;;;;;;7.55;4.47;;;22.90;99.90;;;;;;2518532;23;20028;-72